sensor_id;sensor_type;location;lat;lon;timestamp;P1;durP1;ratioP1;P2;durP2;ratioP2
62790;SDS011;48830;53.426;10.300;2023-01-15T00:00:13;1.40;;;0.90;;
62790;SDS011;48830;53.426;10.300;2023-01-15T00:02:38;2.33;;;0.87;;
62790;SDS011;48830;53.426;10.300;2023-01-15T00:05:04;3.17;;;1.10;;
62790;SDS011;48830;53.426;10.300;2023-01-15T00:07:30;2.60;;;0.83;;
62790;SDS011;48830;53.426;10.300;2023-01-15T00:09:56;3.07;;;1.00;;
62790;SDS011;48830;53.426;10.300;2023-01-15T00:12:21;3.00;;;1.13;;
62790;SDS011;48830;53.426;10.300;2023-01-15T00:14:47;9.73;;;1.40;;
62790;SDS011;48830;53.426;10.300;2023-01-15T00:17:13;6.53;;;1.43;;
62790;SDS011;48830;53.426;10.300;2023-01-15T00:19:38;4.77;;;1.10;;
62790;SDS011;48830;53.426;10.300;2023-01-15T00:22:03;4.00;;;1.17;;
62790;SDS011;48830;53.426;10.300;2023-01-15T00:24:29;2.93;;;0.90;;
62790;SDS011;48830;53.426;10.300;2023-01-15T00:27:13;3.43;;;1.20;;
62790;SDS011;48830;53.426;10.300;2023-01-15T00:29:57;6.23;;;1.40;;
62790;SDS011;48830;53.426;10.300;2023-01-15T00:32:23;4.87;;;1.20;;
62790;SDS011;48830;53.426;10.300;2023-01-15T00:34:53;2.97;;;1.00;;
62790;SDS011;48830;53.426;10.300;2023-01-15T00:37:18;2.37;;;1.03;;
62790;SDS011;48830;53.426;10.300;2023-01-15T00:39:44;7.20;;;1.10;;
62790;SDS011;48830;53.426;10.300;2023-01-15T00:42:12;4.97;;;1.20;;
62790;SDS011;48830;53.426;10.300;2023-01-15T00:44:37;3.10;;;1.10;;
62790;SDS011;48830;53.426;10.300;2023-01-15T00:47:04;2.97;;;1.00;;
62790;SDS011;48830;53.426;10.300;2023-01-15T00:49:31;3.77;;;1.10;;
62790;SDS011;48830;53.426;10.300;2023-01-15T00:51:56;4.07;;;1.20;;
62790;SDS011;48830;53.426;10.300;2023-01-15T00:54:21;2.00;;;1.10;;
62790;SDS011;48830;53.426;10.300;2023-01-15T00:56:47;2.87;;;1.00;;
62790;SDS011;48830;53.426;10.300;2023-01-15T00:59:13;2.67;;;1.10;;
62790;SDS011;48830;53.426;10.300;2023-01-15T01:01:38;3.37;;;1.00;;
62790;SDS011;48830;53.426;10.300;2023-01-15T01:04:04;2.10;;;1.10;;
62790;SDS011;48830;53.426;10.300;2023-01-15T01:06:30;3.33;;;1.20;;
62790;SDS011;48830;53.426;10.300;2023-01-15T01:08:55;1.50;;;0.87;;
62790;SDS011;48830;53.426;10.300;2023-01-15T01:11:22;4.10;;;1.20;;
62790;SDS011;48830;53.426;10.300;2023-01-15T01:13:52;2.87;;;1.10;;
62790;SDS011;48830;53.426;10.300;2023-01-15T01:18:47;7.37;;;0.93;;
62790;SDS011;48830;53.426;10.300;2023-01-15T01:21:13;3.20;;;1.00;;
62790;SDS011;48830;53.426;10.300;2023-01-15T01:23:39;4.67;;;1.20;;
62790;SDS011;48830;53.426;10.300;2023-01-15T01:26:04;2.70;;;0.90;;
62790;SDS011;48830;53.426;10.300;2023-01-15T01:28:29;3.07;;;1.17;;
62790;SDS011;48830;53.426;10.300;2023-01-15T01:30:55;2.93;;;1.00;;
62790;SDS011;48830;53.426;10.300;2023-01-15T01:33:20;6.40;;;1.40;;
62790;SDS011;48830;53.426;10.300;2023-01-15T01:35:46;3.57;;;1.10;;
62790;SDS011;48830;53.426;10.300;2023-01-15T01:38:15;1.40;;;0.87;;
62790;SDS011;48830;53.426;10.300;2023-01-15T01:40:41;5.60;;;1.33;;
62790;SDS011;48830;53.426;10.300;2023-01-15T01:43:16;4.70;;;1.10;;
62790;SDS011;48830;53.426;10.300;2023-01-15T01:45:44;6.17;;;1.50;;
62790;SDS011;48830;53.426;10.300;2023-01-15T01:48:10;4.17;;;1.33;;
62790;SDS011;48830;53.426;10.300;2023-01-15T01:50:36;5.00;;;1.43;;
62790;SDS011;48830;53.426;10.300;2023-01-15T01:53:13;3.93;;;1.30;;
62790;SDS011;48830;53.426;10.300;2023-01-15T01:55:44;5.03;;;1.60;;
62790;SDS011;48830;53.426;10.300;2023-01-15T01:58:10;5.17;;;1.40;;
62790;SDS011;48830;53.426;10.300;2023-01-15T02:00:37;2.90;;;1.40;;
62790;SDS011;48830;53.426;10.300;2023-01-15T02:03:08;3.77;;;1.23;;
62790;SDS011;48830;53.426;10.300;2023-01-15T02:05:37;5.27;;;1.77;;
62790;SDS011;48830;53.426;10.300;2023-01-15T02:08:06;2.40;;;1.30;;
62790;SDS011;48830;53.426;10.300;2023-01-15T02:10:32;5.67;;;1.53;;
62790;SDS011;48830;53.426;10.300;2023-01-15T02:13:03;5.67;;;1.30;;
62790;SDS011;48830;53.426;10.300;2023-01-15T02:15:37;3.93;;;1.47;;
62790;SDS011;48830;53.426;10.300;2023-01-15T02:18:09;3.73;;;1.40;;
62790;SDS011;48830;53.426;10.300;2023-01-15T02:20:52;7.97;;;1.90;;
62790;SDS011;48830;53.426;10.300;2023-01-15T02:28:47;6.07;;;1.80;;
62790;SDS011;48830;53.426;10.300;2023-01-15T02:31:37;4.33;;;1.70;;
62790;SDS011;48830;53.426;10.300;2023-01-15T02:36:38;4.00;;;1.37;;
62790;SDS011;48830;53.426;10.300;2023-01-15T02:39:14;5.87;;;1.70;;
62790;SDS011;48830;53.426;10.300;2023-01-15T02:41:43;5.73;;;1.40;;
62790;SDS011;48830;53.426;10.300;2023-01-15T02:44:12;5.10;;;1.47;;
62790;SDS011;48830;53.426;10.300;2023-01-15T02:46:42;4.97;;;1.47;;
62790;SDS011;48830;53.426;10.300;2023-01-15T02:49:11;4.00;;;1.40;;
62790;SDS011;48830;53.426;10.300;2023-01-15T02:51:47;3.47;;;1.47;;
62790;SDS011;48830;53.426;10.300;2023-01-15T02:55:10;4.10;;;1.57;;
62790;SDS011;48830;53.426;10.300;2023-01-15T02:57:41;5.87;;;1.60;;
62790;SDS011;48830;53.426;10.300;2023-01-15T03:00:15;2.80;;;1.60;;
62790;SDS011;48830;53.426;10.300;2023-01-15T03:02:52;6.27;;;1.63;;
62790;SDS011;48830;53.426;10.300;2023-01-15T03:05:25;4.27;;;1.23;;
62790;SDS011;48830;53.426;10.300;2023-01-15T03:08:04;4.33;;;1.50;;
62790;SDS011;48830;53.426;10.300;2023-01-15T03:13:15;4.87;;;1.40;;
62790;SDS011;48830;53.426;10.300;2023-01-15T03:15:52;6.23;;;1.60;;
62790;SDS011;48830;53.426;10.300;2023-01-15T03:18:49;8.00;;;1.90;;
62790;SDS011;48830;53.426;10.300;2023-01-15T03:21:29;7.33;;;1.40;;
62790;SDS011;48830;53.426;10.300;2023-01-15T03:24:03;5.73;;;1.90;;
62790;SDS011;48830;53.426;10.300;2023-01-15T03:26:31;4.07;;;1.33;;
62790;SDS011;48830;53.426;10.300;2023-01-15T03:28:57;7.53;;;1.73;;
62790;SDS011;48830;53.426;10.300;2023-01-15T03:31:24;6.33;;;1.50;;
62790;SDS011;48830;53.426;10.300;2023-01-15T03:33:50;5.77;;;1.77;;
62790;SDS011;48830;53.426;10.300;2023-01-15T03:36:18;6.57;;;1.70;;
62790;SDS011;48830;53.426;10.300;2023-01-15T03:38:46;6.93;;;1.50;;
62790;SDS011;48830;53.426;10.300;2023-01-15T03:41:58;5.10;;;1.37;;
62790;SDS011;48830;53.426;10.300;2023-01-15T03:44:39;4.00;;;1.37;;
62790;SDS011;48830;53.426;10.300;2023-01-15T03:47:14;7.33;;;1.70;;
62790;SDS011;48830;53.426;10.300;2023-01-15T03:49:58;6.00;;;1.70;;
62790;SDS011;48830;53.426;10.300;2023-01-15T03:58:24;2.83;;;1.40;;
62790;SDS011;48830;53.426;10.300;2023-01-15T04:00:56;8.67;;;1.80;;
62790;SDS011;48830;53.426;10.300;2023-01-15T04:03:25;7.10;;;1.57;;
62790;SDS011;48830;53.426;10.300;2023-01-15T04:05:53;8.50;;;1.70;;
62790;SDS011;48830;53.426;10.300;2023-01-15T04:08:21;7.33;;;1.53;;
62790;SDS011;48830;53.426;10.300;2023-01-15T04:10:56;8.40;;;1.73;;
62790;SDS011;48830;53.426;10.300;2023-01-15T04:13:27;5.63;;;1.80;;
62790;SDS011;48830;53.426;10.300;2023-01-15T04:15:53;7.27;;;1.80;;
62790;SDS011;48830;53.426;10.300;2023-01-15T04:18:20;7.30;;;1.63;;
62790;SDS011;48830;53.426;10.300;2023-01-15T04:20:46;5.93;;;1.80;;
62790;SDS011;48830;53.426;10.300;2023-01-15T04:23:13;8.27;;;1.90;;
62790;SDS011;48830;53.426;10.300;2023-01-15T04:25:39;4.63;;;1.53;;
62790;SDS011;48830;53.426;10.300;2023-01-15T04:28:05;6.53;;;1.90;;
62790;SDS011;48830;53.426;10.300;2023-01-15T04:30:30;6.33;;;1.57;;
62790;SDS011;48830;53.426;10.300;2023-01-15T04:32:56;8.27;;;1.90;;
62790;SDS011;48830;53.426;10.300;2023-01-15T04:35:22;8.70;;;1.90;;
62790;SDS011;48830;53.426;10.300;2023-01-15T04:37:47;5.67;;;1.70;;
62790;SDS011;48830;53.426;10.300;2023-01-15T04:40:13;7.13;;;1.63;;
62790;SDS011;48830;53.426;10.300;2023-01-15T04:42:58;11.37;;;2.47;;
62790;SDS011;48830;53.426;10.300;2023-01-15T04:45:43;7.67;;;2.00;;
62790;SDS011;48830;53.426;10.300;2023-01-15T04:48:09;7.20;;;1.87;;
62790;SDS011;48830;53.426;10.300;2023-01-15T04:50:37;8.73;;;1.83;;
62790;SDS011;48830;53.426;10.300;2023-01-15T04:53:03;10.40;;;1.80;;
62790;SDS011;48830;53.426;10.300;2023-01-15T04:55:28;5.93;;;2.10;;
62790;SDS011;48830;53.426;10.300;2023-01-15T04:57:55;8.07;;;1.60;;
62790;SDS011;48830;53.426;10.300;2023-01-15T05:00:20;11.67;;;2.00;;
62790;SDS011;48830;53.426;10.300;2023-01-15T05:02:47;6.00;;;2.00;;
62790;SDS011;48830;53.426;10.300;2023-01-15T05:05:13;11.87;;;1.83;;
62790;SDS011;48830;53.426;10.300;2023-01-15T05:07:38;7.70;;;1.77;;
62790;SDS011;48830;53.426;10.300;2023-01-15T05:10:04;7.33;;;1.73;;
62790;SDS011;48830;53.426;10.300;2023-01-15T05:12:30;11.80;;;2.20;;
62790;SDS011;48830;53.426;10.300;2023-01-15T05:14:55;8.20;;;1.90;;
62790;SDS011;48830;53.426;10.300;2023-01-15T05:17:21;7.20;;;1.80;;
62790;SDS011;48830;53.426;10.300;2023-01-15T05:19:46;9.27;;;2.00;;
62790;SDS011;48830;53.426;10.300;2023-01-15T05:22:11;9.23;;;1.53;;
62790;SDS011;48830;53.426;10.300;2023-01-15T05:24:37;6.40;;;1.50;;
62790;SDS011;48830;53.426;10.300;2023-01-15T05:27:03;8.63;;;2.07;;
62790;SDS011;48830;53.426;10.300;2023-01-15T05:29:29;7.83;;;2.00;;
62790;SDS011;48830;53.426;10.300;2023-01-15T05:31:55;7.93;;;1.90;;
62790;SDS011;48830;53.426;10.300;2023-01-15T05:34:21;7.20;;;1.73;;
62790;SDS011;48830;53.426;10.300;2023-01-15T05:36:46;9.97;;;3.10;;
62790;SDS011;48830;53.426;10.300;2023-01-15T05:39:12;9.87;;;2.27;;
62790;SDS011;48830;53.426;10.300;2023-01-15T05:41:37;12.53;;;2.00;;
62790;SDS011;48830;53.426;10.300;2023-01-15T05:44:25;11.10;;;2.27;;
62790;SDS011;48830;53.426;10.300;2023-01-15T05:46:53;7.63;;;2.00;;
62790;SDS011;48830;53.426;10.300;2023-01-15T05:49:23;11.07;;;2.07;;
62790;SDS011;48830;53.426;10.300;2023-01-15T05:51:50;6.80;;;2.10;;
62790;SDS011;48830;53.426;10.300;2023-01-15T05:54:18;6.60;;;2.00;;
62790;SDS011;48830;53.426;10.300;2023-01-15T05:56:45;9.30;;;1.90;;
62790;SDS011;48830;53.426;10.300;2023-01-15T05:59:13;10.07;;;2.20;;
62790;SDS011;48830;53.426;10.300;2023-01-15T06:01:39;9.37;;;2.27;;
62790;SDS011;48830;53.426;10.300;2023-01-15T06:04:05;8.47;;;2.47;;
62790;SDS011;48830;53.426;10.300;2023-01-15T06:06:31;8.60;;;2.07;;
62790;SDS011;48830;53.426;10.300;2023-01-15T06:08:58;7.77;;;2.20;;
62790;SDS011;48830;53.426;10.300;2023-01-15T06:11:24;7.83;;;2.20;;
62790;SDS011;48830;53.426;10.300;2023-01-15T06:13:49;9.93;;;2.10;;
62790;SDS011;48830;53.426;10.300;2023-01-15T06:16:15;7.03;;;2.10;;
62790;SDS011;48830;53.426;10.300;2023-01-15T06:18:40;7.77;;;2.00;;
62790;SDS011;48830;53.426;10.300;2023-01-15T06:21:07;5.93;;;2.30;;
62790;SDS011;48830;53.426;10.300;2023-01-15T06:23:35;6.60;;;1.93;;
62790;SDS011;48830;53.426;10.300;2023-01-15T06:26:01;9.60;;;2.47;;
62790;SDS011;48830;53.426;10.300;2023-01-15T06:28:31;11.10;;;2.20;;
62790;SDS011;48830;53.426;10.300;2023-01-15T06:30:56;8.20;;;1.97;;
62790;SDS011;48830;53.426;10.300;2023-01-15T06:33:22;6.63;;;1.93;;
62790;SDS011;48830;53.426;10.300;2023-01-15T06:35:48;10.93;;;1.87;;
62790;SDS011;48830;53.426;10.300;2023-01-15T06:38:13;5.93;;;2.13;;
62790;SDS011;48830;53.426;10.300;2023-01-15T06:40:39;6.57;;;1.87;;
62790;SDS011;48830;53.426;10.300;2023-01-15T06:43:04;8.57;;;2.20;;
62790;SDS011;48830;53.426;10.300;2023-01-15T06:45:48;5.60;;;1.97;;
62790;SDS011;48830;53.426;10.300;2023-01-15T06:48:49;7.83;;;2.07;;
62790;SDS011;48830;53.426;10.300;2023-01-15T06:51:15;9.97;;;2.10;;
62790;SDS011;48830;53.426;10.300;2023-01-15T06:53:44;8.50;;;2.00;;
62790;SDS011;48830;53.426;10.300;2023-01-15T06:56:11;6.90;;;2.13;;
62790;SDS011;48830;53.426;10.300;2023-01-15T06:58:38;6.47;;;1.90;;
62790;SDS011;48830;53.426;10.300;2023-01-15T07:01:11;6.67;;;1.80;;
62790;SDS011;48830;53.426;10.300;2023-01-15T07:03:40;5.07;;;1.77;;
62790;SDS011;48830;53.426;10.300;2023-01-15T07:06:06;6.13;;;1.90;;
62790;SDS011;48830;53.426;10.300;2023-01-15T07:08:33;9.07;;;1.90;;
62790;SDS011;48830;53.426;10.300;2023-01-15T07:11:02;11.10;;;2.47;;
62790;SDS011;48830;53.426;10.300;2023-01-15T07:13:28;9.20;;;2.80;;
62790;SDS011;48830;53.426;10.300;2023-01-15T07:15:54;9.83;;;2.40;;
62790;SDS011;48830;53.426;10.300;2023-01-15T07:18:22;5.93;;;2.07;;
62790;SDS011;48830;53.426;10.300;2023-01-15T07:20:48;8.27;;;2.57;;
62790;SDS011;48830;53.426;10.300;2023-01-15T07:23:13;9.23;;;2.20;;
62790;SDS011;48830;53.426;10.300;2023-01-15T07:25:39;8.40;;;2.60;;
62790;SDS011;48830;53.426;10.300;2023-01-15T07:28:04;8.77;;;2.57;;
62790;SDS011;48830;53.426;10.300;2023-01-15T07:30:30;7.67;;;2.00;;
62790;SDS011;48830;53.426;10.300;2023-01-15T07:32:55;8.03;;;2.53;;
62790;SDS011;48830;53.426;10.300;2023-01-15T07:35:21;8.50;;;2.47;;
62790;SDS011;48830;53.426;10.300;2023-01-15T07:37:49;8.23;;;2.40;;
62790;SDS011;48830;53.426;10.300;2023-01-15T07:40:16;8.53;;;2.10;;
62790;SDS011;48830;53.426;10.300;2023-01-15T07:42:42;7.47;;;2.37;;
62790;SDS011;48830;53.426;10.300;2023-01-15T07:45:26;8.07;;;2.57;;
62790;SDS011;48830;53.426;10.300;2023-01-15T07:48:10;8.23;;;2.47;;
62790;SDS011;48830;53.426;10.300;2023-01-15T07:50:53;9.67;;;2.50;;
62790;SDS011;48830;53.426;10.300;2023-01-15T07:53:19;6.97;;;2.27;;
62790;SDS011;48830;53.426;10.300;2023-01-15T07:55:44;7.00;;;2.30;;
62790;SDS011;48830;53.426;10.300;2023-01-15T07:58:10;6.27;;;1.90;;
62790;SDS011;48830;53.426;10.300;2023-01-15T08:00:35;9.33;;;2.77;;
62790;SDS011;48830;53.426;10.300;2023-01-15T08:03:01;10.33;;;2.83;;
62790;SDS011;48830;53.426;10.300;2023-01-15T08:05:27;5.57;;;2.30;;
62790;SDS011;48830;53.426;10.300;2023-01-15T08:07:53;8.27;;;2.20;;
62790;SDS011;48830;53.426;10.300;2023-01-15T08:10:18;9.90;;;2.23;;
62790;SDS011;48830;53.426;10.300;2023-01-15T08:12:44;6.73;;;2.23;;
62790;SDS011;48830;53.426;10.300;2023-01-15T08:15:29;7.27;;;2.00;;
62790;SDS011;48830;53.426;10.300;2023-01-15T08:17:57;10.40;;;2.30;;
62790;SDS011;48830;53.426;10.300;2023-01-15T08:20:23;10.23;;;2.30;;
62790;SDS011;48830;53.426;10.300;2023-01-15T08:22:50;14.70;;;3.43;;
62790;SDS011;48830;53.426;10.300;2023-01-15T08:25:17;8.40;;;2.43;;
62790;SDS011;48830;53.426;10.300;2023-01-15T08:27:44;10.00;;;2.37;;
62790;SDS011;48830;53.426;10.300;2023-01-15T08:30:12;13.17;;;3.30;;
62790;SDS011;48830;53.426;10.300;2023-01-15T08:32:39;7.00;;;2.60;;
62790;SDS011;48830;53.426;10.300;2023-01-15T08:35:05;5.37;;;1.93;;
62790;SDS011;48830;53.426;10.300;2023-01-15T08:37:31;8.20;;;2.17;;
62790;SDS011;48830;53.426;10.300;2023-01-15T08:39:56;6.53;;;1.90;;
62790;SDS011;48830;53.426;10.300;2023-01-15T08:42:22;6.97;;;2.00;;
62790;SDS011;48830;53.426;10.300;2023-01-15T08:44:47;6.80;;;2.53;;
62790;SDS011;48830;53.426;10.300;2023-01-15T08:47:13;10.23;;;2.63;;
62790;SDS011;48830;53.426;10.300;2023-01-15T08:49:40;6.23;;;1.73;;
62790;SDS011;48830;53.426;10.300;2023-01-15T08:52:05;7.07;;;1.93;;
62790;SDS011;48830;53.426;10.300;2023-01-15T08:54:30;7.07;;;2.50;;
62790;SDS011;48830;53.426;10.300;2023-01-15T08:56:56;8.30;;;2.10;;
62790;SDS011;48830;53.426;10.300;2023-01-15T08:59:23;6.73;;;2.00;;
62790;SDS011;48830;53.426;10.300;2023-01-15T09:01:49;9.27;;;2.20;;
62790;SDS011;48830;53.426;10.300;2023-01-15T09:04:15;8.50;;;2.37;;
62790;SDS011;48830;53.426;10.300;2023-01-15T09:06:42;7.17;;;1.90;;
62790;SDS011;48830;53.426;10.300;2023-01-15T09:09:08;7.00;;;2.10;;
62790;SDS011;48830;53.426;10.300;2023-01-15T09:11:34;7.10;;;2.03;;
62790;SDS011;48830;53.426;10.300;2023-01-15T09:14:01;5.03;;;1.83;;
62790;SDS011;48830;53.426;10.300;2023-01-15T09:16:26;7.00;;;1.97;;
62790;SDS011;48830;53.426;10.300;2023-01-15T09:18:52;7.13;;;2.13;;
62790;SDS011;48830;53.426;10.300;2023-01-15T09:21:18;6.83;;;1.87;;
62790;SDS011;48830;53.426;10.300;2023-01-15T09:23:44;6.40;;;2.17;;
62790;SDS011;48830;53.426;10.300;2023-01-15T09:26:20;4.80;;;1.70;;
62790;SDS011;48830;53.426;10.300;2023-01-15T09:28:51;8.17;;;1.80;;
62790;SDS011;48830;53.426;10.300;2023-01-15T09:31:16;7.97;;;1.77;;
62790;SDS011;48830;53.426;10.300;2023-01-15T09:33:42;7.70;;;2.07;;
62790;SDS011;48830;53.426;10.300;2023-01-15T09:36:13;7.13;;;1.90;;
62790;SDS011;48830;53.426;10.300;2023-01-15T09:38:40;5.17;;;1.57;;
62790;SDS011;48830;53.426;10.300;2023-01-15T09:41:15;4.17;;;1.50;;
62790;SDS011;48830;53.426;10.300;2023-01-15T09:44:03;5.70;;;1.47;;
62790;SDS011;48830;53.426;10.300;2023-01-15T09:57:39;3.73;;;1.27;;
62790;SDS011;48830;53.426;10.300;2023-01-15T10:00:07;4.93;;;1.47;;
62790;SDS011;48830;53.426;10.300;2023-01-15T10:03:30;5.30;;;1.40;;
62790;SDS011;48830;53.426;10.300;2023-01-15T10:08:15;3.93;;;1.50;;
62790;SDS011;48830;53.426;10.300;2023-01-15T10:11:04;5.03;;;1.70;;
62790;SDS011;48830;53.426;10.300;2023-01-15T10:17:17;5.00;;;1.47;;
62790;SDS011;48830;53.426;10.300;2023-01-15T10:19:47;6.37;;;1.43;;
62790;SDS011;48830;53.426;10.300;2023-01-15T10:22:16;6.60;;;1.83;;
62790;SDS011;48830;53.426;10.300;2023-01-15T10:24:52;5.47;;;1.70;;
62790;SDS011;48830;53.426;10.300;2023-01-15T10:27:21;4.07;;;1.50;;
62790;SDS011;48830;53.426;10.300;2023-01-15T10:32:46;4.87;;;1.53;;
62790;SDS011;48830;53.426;10.300;2023-01-15T10:40:58;8.35;;;1.95;;
62790;SDS011;48830;53.426;10.300;2023-01-15T10:43:36;5.93;;;1.70;;
62790;SDS011;48830;53.426;10.300;2023-01-15T10:46:11;4.70;;;1.58;;
62790;SDS011;48830;53.426;10.300;2023-01-15T10:48:44;6.55;;;1.85;;
62790;SDS011;48830;53.426;10.300;2023-01-15T10:51:13;4.93;;;1.70;;
62790;SDS011;48830;53.426;10.300;2023-01-15T10:54:04;6.10;;;1.50;;
62790;SDS011;48830;53.426;10.300;2023-01-15T10:56:39;6.60;;;1.60;;
62790;SDS011;48830;53.426;10.300;2023-01-15T11:01:43;4.33;;;1.37;;
62790;SDS011;48830;53.426;10.300;2023-01-15T11:04:12;5.73;;;1.70;;
62790;SDS011;48830;53.426;10.300;2023-01-15T11:06:38;3.13;;;1.30;;
62790;SDS011;48830;53.426;10.300;2023-01-15T11:09:04;6.27;;;1.57;;
62790;SDS011;48830;53.426;10.300;2023-01-15T11:14:40;5.27;;;1.80;;
62790;SDS011;48830;53.426;10.300;2023-01-15T11:17:27;6.40;;;1.73;;
62790;SDS011;48830;53.426;10.300;2023-01-15T11:23:13;4.47;;;1.50;;
62790;SDS011;48830;53.426;10.300;2023-01-15T11:25:50;6.90;;;1.77;;
62790;SDS011;48830;53.426;10.300;2023-01-15T11:28:31;5.03;;;1.80;;
62790;SDS011;48830;53.426;10.300;2023-01-15T11:31:00;6.43;;;1.85;;
62790;SDS011;48830;53.426;10.300;2023-01-15T11:33:27;5.55;;;1.52;;
62790;SDS011;48830;53.426;10.300;2023-01-15T11:35:55;7.63;;;1.98;;
62790;SDS011;48830;53.426;10.300;2023-01-15T11:38:29;4.67;;;1.50;;
62790;SDS011;48830;53.426;10.300;2023-01-15T11:41:15;3.83;;;1.43;;
62790;SDS011;48830;53.426;10.300;2023-01-15T11:44:20;5.13;;;1.83;;
62790;SDS011;48830;53.426;10.300;2023-01-15T11:46:57;4.03;;;1.50;;
62790;SDS011;48830;53.426;10.300;2023-01-15T11:49:51;8.60;;;2.00;;
62790;SDS011;48830;53.426;10.300;2023-01-15T11:52:47;5.00;;;1.30;;
62790;SDS011;48830;53.426;10.300;2023-01-15T11:55:17;5.80;;;1.63;;
62790;SDS011;48830;53.426;10.300;2023-01-15T11:57:44;5.13;;;1.57;;
62790;SDS011;48830;53.426;10.300;2023-01-15T12:00:53;6.03;;;1.70;;
62790;SDS011;48830;53.426;10.300;2023-01-15T12:03:05;4.30;;;1.50;;
62790;SDS011;48830;53.426;10.300;2023-01-15T12:05:43;5.63;;;1.47;;
62790;SDS011;48830;53.426;10.300;2023-01-15T12:08:15;5.63;;;1.83;;
62790;SDS011;48830;53.426;10.300;2023-01-15T12:22:02;3.97;;;1.60;;
62790;SDS011;48830;53.426;10.300;2023-01-15T12:33:10;5.93;;;1.87;;
62790;SDS011;48830;53.426;10.300;2023-01-15T12:35:47;7.57;;;2.07;;
62790;SDS011;48830;53.426;10.300;2023-01-15T12:38:28;10.47;;;2.10;;
62790;SDS011;48830;53.426;10.300;2023-01-15T12:41:00;7.33;;;2.20;;
62790;SDS011;48830;53.426;10.300;2023-01-15T12:43:32;6.57;;;2.83;;
62790;SDS011;48830;53.426;10.300;2023-01-15T12:46:17;9.20;;;2.33;;
62790;SDS011;48830;53.426;10.300;2023-01-15T12:48:49;5.43;;;1.70;;
62790;SDS011;48830;53.426;10.300;2023-01-15T12:51:24;8.90;;;2.40;;
62790;SDS011;48830;53.426;10.300;2023-01-15T12:54:07;6.97;;;2.40;;
62790;SDS011;48830;53.426;10.300;2023-01-15T12:59:09;8.87;;;2.33;;
62790;SDS011;48830;53.426;10.300;2023-01-15T13:04:38;7.57;;;2.27;;
62790;SDS011;48830;53.426;10.300;2023-01-15T13:07:17;5.27;;;2.00;;
62790;SDS011;48830;53.426;10.300;2023-01-15T13:09:57;8.73;;;2.53;;
62790;SDS011;48830;53.426;10.300;2023-01-15T13:12:24;10.60;;;2.03;;
62790;SDS011;48830;53.426;10.300;2023-01-15T13:14:52;7.60;;;2.10;;
62790;SDS011;48830;53.426;10.300;2023-01-15T13:25:53;6.87;;;1.80;;
62790;SDS011;48830;53.426;10.300;2023-01-15T13:28:53;9.90;;;2.13;;
62790;SDS011;48830;53.426;10.300;2023-01-15T13:34:23;10.37;;;1.87;;
62790;SDS011;48830;53.426;10.300;2023-01-15T13:37:17;6.13;;;1.63;;
62790;SDS011;48830;53.426;10.300;2023-01-15T13:39:57;5.83;;;1.60;;
62790;SDS011;48830;53.426;10.300;2023-01-15T13:42:25;5.50;;;1.67;;
62790;SDS011;48830;53.426;10.300;2023-01-15T13:47:31;5.83;;;1.53;;
62790;SDS011;48830;53.426;10.300;2023-01-15T13:50:03;3.73;;;1.30;;
62790;SDS011;48830;53.426;10.300;2023-01-15T13:52:32;6.60;;;1.60;;
62790;SDS011;48830;53.426;10.300;2023-01-15T13:55:25;4.53;;;1.37;;
62790;SDS011;48830;53.426;10.300;2023-01-15T13:58:19;6.03;;;1.70;;
62790;SDS011;48830;53.426;10.300;2023-01-15T14:00:59;6.43;;;1.60;;
62790;SDS011;48830;53.426;10.300;2023-01-15T14:03:30;6.43;;;1.77;;
62790;SDS011;48830;53.426;10.300;2023-01-15T14:06:05;4.60;;;1.67;;
62790;SDS011;48830;53.426;10.300;2023-01-15T14:11:27;8.97;;;1.80;;
62790;SDS011;48830;53.426;10.300;2023-01-15T14:16:51;9.43;;;1.70;;
62790;SDS011;48830;53.426;10.300;2023-01-15T14:22:29;7.53;;;1.80;;
62790;SDS011;48830;53.426;10.300;2023-01-15T14:33:20;7.33;;;1.87;;
62790;SDS011;48830;53.426;10.300;2023-01-15T14:35:50;5.80;;;1.80;;
62790;SDS011;48830;53.426;10.300;2023-01-15T14:38:17;6.13;;;1.67;;
62790;SDS011;48830;53.426;10.300;2023-01-15T14:40:57;5.63;;;1.80;;
62790;SDS011;48830;53.426;10.300;2023-01-15T14:43:30;7.30;;;1.57;;
62790;SDS011;48830;53.426;10.300;2023-01-15T14:46:07;3.57;;;1.60;;
62790;SDS011;48830;53.426;10.300;2023-01-15T14:48:48;5.60;;;1.80;;
62790;SDS011;48830;53.426;10.300;2023-01-15T14:51:15;7.90;;;1.50;;
62790;SDS011;48830;53.426;10.300;2023-01-15T14:54:28;9.57;;;1.67;;
62790;SDS011;48830;53.426;10.300;2023-01-15T14:56:41;6.77;;;1.63;;
62790;SDS011;48830;53.426;10.300;2023-01-15T14:59:14;4.73;;;1.47;;
62790;SDS011;48830;53.426;10.300;2023-01-15T15:04:14;5.50;;;1.40;;
62790;SDS011;48830;53.426;10.300;2023-01-15T15:06:44;8.53;;;1.80;;
62790;SDS011;48830;53.426;10.300;2023-01-15T15:09:12;4.20;;;1.60;;
62790;SDS011;48830;53.426;10.300;2023-01-15T15:11:47;6.43;;;2.03;;
62790;SDS011;48830;53.426;10.300;2023-01-15T15:14:33;4.40;;;1.30;;
62790;SDS011;48830;53.426;10.300;2023-01-15T15:17:03;6.33;;;1.73;;
62790;SDS011;48830;53.426;10.300;2023-01-15T15:19:37;6.37;;;1.90;;
62790;SDS011;48830;53.426;10.300;2023-01-15T15:22:07;10.10;;;1.90;;
62790;SDS011;48830;53.426;10.300;2023-01-15T15:24:42;7.57;;;2.00;;
62790;SDS011;48830;53.426;10.300;2023-01-15T15:27:19;6.67;;;1.67;;
62790;SDS011;48830;53.426;10.300;2023-01-15T15:29:47;4.73;;;1.70;;
62790;SDS011;48830;53.426;10.300;2023-01-15T15:32:14;4.13;;;1.70;;
62790;SDS011;48830;53.426;10.300;2023-01-15T15:34:46;7.33;;;1.70;;
62790;SDS011;48830;53.426;10.300;2023-01-15T15:37:24;7.57;;;1.80;;
62790;SDS011;48830;53.426;10.300;2023-01-15T15:39:59;7.50;;;1.80;;
62790;SDS011;48830;53.426;10.300;2023-01-15T15:42:34;6.47;;;2.30;;
62790;SDS011;48830;53.426;10.300;2023-01-15T15:45:28;5.43;;;1.70;;
62790;SDS011;48830;53.426;10.300;2023-01-15T15:48:30;6.20;;;1.70;;
62790;SDS011;48830;53.426;10.300;2023-01-15T15:57:01;9.00;;;2.13;;
62790;SDS011;48830;53.426;10.300;2023-01-15T15:59:35;6.80;;;1.27;;
62790;SDS011;48830;53.426;10.300;2023-01-15T16:04:53;6.30;;;1.50;;
62790;SDS011;48830;53.426;10.300;2023-01-15T16:07:27;5.40;;;1.70;;
62790;SDS011;48830;53.426;10.300;2023-01-15T16:12:59;5.53;;;1.50;;
62790;SDS011;48830;53.426;10.300;2023-01-15T16:15:30;6.23;;;1.90;;
62790;SDS011;48830;53.426;10.300;2023-01-15T16:17:59;6.73;;;1.70;;
62790;SDS011;48830;53.426;10.300;2023-01-15T16:20:27;5.53;;;1.60;;
62790;SDS011;48830;53.426;10.300;2023-01-15T16:22:53;6.13;;;1.70;;
62790;SDS011;48830;53.426;10.300;2023-01-15T16:25:36;5.67;;;1.40;;
62790;SDS011;48830;53.426;10.300;2023-01-15T16:28:05;3.73;;;1.37;;
62790;SDS011;48830;53.426;10.300;2023-01-15T16:30:45;2.60;;;1.33;;
62790;SDS011;48830;53.426;10.300;2023-01-15T16:33:18;5.23;;;1.60;;
62790;SDS011;48830;53.426;10.300;2023-01-15T16:35:44;7.23;;;1.70;;
62790;SDS011;48830;53.426;10.300;2023-01-15T16:38:13;6.80;;;2.00;;
62790;SDS011;48830;53.426;10.300;2023-01-15T16:40:44;5.60;;;1.73;;
62790;SDS011;48830;53.426;10.300;2023-01-15T16:43:17;5.87;;;1.93;;
62790;SDS011;48830;53.426;10.300;2023-01-15T16:48:25;7.60;;;1.80;;
62790;SDS011;48830;53.426;10.300;2023-01-15T16:50:54;7.33;;;2.07;;
62790;SDS011;48830;53.426;10.300;2023-01-15T16:53:30;6.57;;;2.17;;
62790;SDS011;48830;53.426;10.300;2023-01-15T16:55:56;5.90;;;2.17;;
62790;SDS011;48830;53.426;10.300;2023-01-15T17:07:06;7.40;;;2.17;;
62790;SDS011;48830;53.426;10.300;2023-01-15T17:09:47;4.93;;;1.70;;
62790;SDS011;48830;53.426;10.300;2023-01-15T17:12:20;8.70;;;1.97;;